sensor_id;sensor_type;location;lat;lon;timestamp;temperature;humidity
7016;DHT22;3548;48.402;9.990;2022-09-21T00:00:32;6.50;99.90
7016;DHT22;3548;48.402;9.990;2022-09-21T00:02:57;6.40;99.90
7016;DHT22;3548;48.402;9.990;2022-09-21T00:05:23;6.40;99.90
7016;DHT22;3548;48.402;9.990;2022-09-21T00:07:49;6.40;99.90
7016;DHT22;3548;48.402;9.990;2022-09-21T00:10:15;6.40;99.90
7016;DHT22;3548;48.402;9.990;2022-09-21T00:12:41;6.40;99.90
7016;DHT22;3548;48.402;9.990;2022-09-21T00:15:08;6.40;99.90
7016;DHT22;3548;48.402;9.990;2022-09-21T00:17:34;6.30;99.90
7016;DHT22;3548;48.402;9.990;2022-09-21T00:20:01;6.30;99.90
7016;DHT22;3548;48.402;9.990;2022-09-21T00:22:29;6.30;99.90
7016;DHT22;3548;48.402;9.990;2022-09-21T00:24:54;6.30;99.90
7016;DHT22;3548;48.402;9.990;2022-09-21T00:27:20;6.30;99.90
7016;DHT22;3548;48.402;9.990;2022-09-21T00:29:46;6.30;99.90
7016;DHT22;3548;48.402;9.990;2022-09-21T00:32:13;6.20;99.90
7016;DHT22;3548;48.402;9.990;2022-09-21T00:34:40;6.20;99.90
7016;DHT22;3548;48.402;9.990;2022-09-21T00:37:06;6.20;99.90
7016;DHT22;3548;48.402;9.990;2022-09-21T00:39:34;6.20;99.90
7016;DHT22;3548;48.402;9.990;2022-09-21T00:41:59;6.20;99.90
7016;DHT22;3548;48.402;9.990;2022-09-21T00:44:27;6.20;99.90
7016;DHT22;3548;48.402;9.990;2022-09-21T00:47:00;6.10;99.90
7016;DHT22;3548;48.402;9.990;2022-09-21T00:49:27;6.10;99.90
7016;DHT22;3548;48.402;9.990;2022-09-21T00:51:55;6.10;99.90
7016;DHT22;3548;48.402;9.990;2022-09-21T00:54:26;6.10;99.90
7016;DHT22;3548;48.402;9.990;2022-09-21T00:56:54;6.10;99.90
7016;DHT22;3548;48.402;9.990;2022-09-21T00:59:20;6.10;99.90
7016;DHT22;3548;48.402;9.990;2022-09-21T01:01:46;6.00;99.90
7016;DHT22;3548;48.402;9.990;2022-09-21T01:04:13;6.00;99.90
7016;DHT22;3548;48.402;9.990;2022-09-21T01:06:41;6.00;99.90
7016;DHT22;3548;48.402;9.990;2022-09-21T01:09:07;6.00;99.90
7016;DHT22;3548;48.402;9.990;2022-09-21T01:11:46;5.90;99.90
7016;DHT22;3548;48.402;9.990;2022-09-21T01:20:23;5.80;99.90
7016;DHT22;3548;48.402;9.990;2022-09-21T01:25:40;5.80;99.90
7016;DHT22;3548;48.402;9.990;2022-09-21T01:30:57;5.80;99.90
7016;DHT22;3548;48.402;9.990;2022-09-21T01:33:28;5.80;99.90
7016;DHT22;3548;48.402;9.990;2022-09-21T01:36:00;5.70;99.90
7016;DHT22;3548;48.402;9.990;2022-09-21T01:38:31;5.70;99.90
7016;DHT22;3548;48.402;9.990;2022-09-21T01:41:02;5.70;99.90
7016;DHT22;3548;48.402;9.990;2022-09-21T01:43:37;5.70;99.90
7016;DHT22;3548;48.402;9.990;2022-09-21T01:46:06;5.70;99.90
7016;DHT22;3548;48.402;9.990;2022-09-21T01:48:39;5.70;99.90
7016;DHT22;3548;48.402;9.990;2022-09-21T01:51:08;5.60;99.90
7016;DHT22;3548;48.402;9.990;2022-09-21T01:53:50;5.60;99.90
7016;DHT22;3548;48.402;9.990;2022-09-21T01:56:28;5.60;99.90
7016;DHT22;3548;48.402;9.990;2022-09-21T02:01:55;5.60;99.90
7016;DHT22;3548;48.402;9.990;2022-09-21T02:04:21;5.60;99.90
7016;DHT22;3548;48.402;9.990;2022-09-21T02:06:48;5.60;99.90
7016;DHT22;3548;48.402;9.990;2022-09-21T02:09:14;5.50;99.90
7016;DHT22;3548;48.402;9.990;2022-09-21T02:11:41;5.50;99.90
7016;DHT22;3548;48.402;9.990;2022-09-21T02:14:14;5.50;99.90
7016;DHT22;3548;48.402;9.990;2022-09-21T02:19:44;5.40;99.90
7016;DHT22;3548;48.402;9.990;2022-09-21T02:22:24;5.30;99.90
7016;DHT22;3548;48.402;9.990;2022-09-21T02:25:06;5.30;99.90
7016;DHT22;3548;48.402;9.990;2022-09-21T02:32:48;5.20;99.90
7016;DHT22;3548;48.402;9.990;2022-09-21T02:35:43;5.20;99.90
7016;DHT22;3548;48.402;9.990;2022-09-21T02:40:52;5.20;99.90
7016;DHT22;3548;48.402;9.990;2022-09-21T02:43:26;5.20;99.90
7016;DHT22;3548;48.402;9.990;2022-09-21T02:46:04;5.20;99.90
7016;DHT22;3548;48.402;9.990;2022-09-21T02:48:44;5.20;99.90
7016;DHT22;3548;48.402;9.990;2022-09-21T02:51:16;5.10;99.90
7016;DHT22;3548;48.402;9.990;2022-09-21T02:53:44;5.10;99.90
7016;DHT22;3548;48.402;9.990;2022-09-21T02:56:12;5.10;99.90
7016;DHT22;3548;48.402;9.990;2022-09-21T02:58:41;5.10;99.90
7016;DHT22;3548;48.402;9.990;2022-09-21T03:01:10;5.10;99.90
7016;DHT22;3548;48.402;9.990;2022-09-21T03:03:36;5.10;99.90
7016;DHT22;3548;48.402;9.990;2022-09-21T03:06:02;5.00;99.90
7016;DHT22;3548;48.402;9.990;2022-09-21T03:08:28;5.00;99.90
7016;DHT22;3548;48.402;9.990;2022-09-21T03:10:55;5.00;99.90
7016;DHT22;3548;48.402;9.990;2022-09-21T03:13:22;4.90;99.90
7016;DHT22;3548;48.402;9.990;2022-09-21T03:15:48;4.90;99.90
7016;DHT22;3548;48.402;9.990;2022-09-21T03:18:13;4.90;99.90
7016;DHT22;3548;48.402;9.990;2022-09-21T03:20:42;4.90;99.90
7016;DHT22;3548;48.402;9.990;2022-09-21T03:23:10;4.90;99.90
7016;DHT22;3548;48.402;9.990;2022-09-21T03:25:36;4.90;99.90
7016;DHT22;3548;48.402;9.990;2022-09-21T03:28:02;4.80;99.90
7016;DHT22;3548;48.402;9.990;2022-09-21T03:30:28;4.80;99.90
7016;DHT22;3548;48.402;9.990;2022-09-21T03:32:54;4.80;99.90
7016;DHT22;3548;48.402;9.990;2022-09-21T03:35:21;4.80;99.90
7016;DHT22;3548;48.402;9.990;2022-09-21T03:37:48;4.80;99.90
7016;DHT22;3548;48.402;9.990;2022-09-21T03:40:15;4.80;99.90
7016;DHT22;3548;48.402;9.990;2022-09-21T03:42:42;4.80;99.90
7016;DHT22;3548;48.402;9.990;2022-09-21T03:45:09;4.80;99.90
7016;DHT22;3548;48.402;9.990;2022-09-21T03:47:35;4.80;99.90
7016;DHT22;3548;48.402;9.990;2022-09-21T03:50:01;4.80;99.90
7016;DHT22;3548;48.402;9.990;2022-09-21T03:52:27;4.80;99.90
7016;DHT22;3548;48.402;9.990;2022-09-21T03:54:52;4.80;99.90
7016;DHT22;3548;48.402;9.990;2022-09-21T03:57:19;4.80;99.90
7016;DHT22;3548;48.402;9.990;2022-09-21T03:59:44;4.80;99.90
7016;DHT22;3548;48.402;9.990;2022-09-21T04:02:10;4.80;99.90
7016;DHT22;3548;48.402;9.990;2022-09-21T04:04:35;4.70;99.90
7016;DHT22;3548;48.402;9.990;2022-09-21T04:07:01;4.70;99.90
7016;DHT22;3548;48.402;9.990;2022-09-21T04:09:27;4.70;99.90
7016;DHT22;3548;48.402;9.990;2022-09-21T04:11:53;4.70;99.90
7016;DHT22;3548;48.402;9.990;2022-09-21T04:14:19;4.70;99.90
7016;DHT22;3548;48.402;9.990;2022-09-21T04:16:45;4.70;99.90
7016;DHT22;3548;48.402;9.990;2022-09-21T04:19:10;4.60;99.90
7016;DHT22;3548;48.402;9.990;2022-09-21T04:21:36;4.60;99.90
7016;DHT22;3548;48.402;9.990;2022-09-21T04:24:02;4.60;99.90
7016;DHT22;3548;48.402;9.990;2022-09-21T04:26:31;4.50;99.90
7016;DHT22;3548;48.402;9.990;2022-09-21T04:28:57;4.50;99.90
7016;DHT22;3548;48.402;9.990;2022-09-21T04:31:24;4.50;99.90
7016;DHT22;3548;48.402;9.990;2022-09-21T04:33:51;4.50;99.90
7016;DHT22;3548;48.402;9.990;2022-09-21T04:36:18;4.50;99.90
7016;DHT22;3548;48.402;9.990;2022-09-21T04:38:44;4.40;99.90
7016;DHT22;3548;48.402;9.990;2022-09-21T04:41:10;4.40;99.90
7016;DHT22;3548;48.402;9.990;2022-09-21T04:43:36;4.40;99.90
7016;DHT22;3548;48.402;9.990;2022-09-21T04:46:10;4.40;99.90
7016;DHT22;3548;48.402;9.990;2022-09-21T04:48:35;4.40;99.90
7016;DHT22;3548;48.402;9.990;2022-09-21T04:51:02;4.40;99.90
7016;DHT22;3548;48.402;9.990;2022-09-21T04:53:29;4.30;99.90
7016;DHT22;3548;48.402;9.990;2022-09-21T04:55:54;4.30;99.90
7016;DHT22;3548;48.402;9.990;2022-09-21T04:58:21;4.30;99.90
7016;DHT22;3548;48.402;9.990;2022-09-21T05:00:51;4.30;99.90
7016;DHT22;3548;48.402;9.990;2022-09-21T05:03:17;4.30;99.90
7016;DHT22;3548;48.402;9.990;2022-09-21T05:05:54;4.20;99.90
7016;DHT22;3548;48.402;9.990;2022-09-21T05:08:21;4.30;99.90
7016;DHT22;3548;48.402;9.990;2022-09-21T05:11:09;4.30;99.90
7016;DHT22;3548;48.402;9.990;2022-09-21T05:13:38;4.40;99.90
7016;DHT22;3548;48.402;9.990;2022-09-21T05:16:04;4.40;99.90
7016;DHT22;3548;48.402;9.990;2022-09-21T05:18:29;4.40;99.90
7016;DHT22;3548;48.402;9.990;2022-09-21T05:20:56;4.40;99.90
7016;DHT22;3548;48.402;9.990;2022-09-21T05:23:22;4.40;99.90
7016;DHT22;3548;48.402;9.990;2022-09-21T05:25:49;4.50;99.90
7016;DHT22;3548;48.402;9.990;2022-09-21T05:28:18;4.50;99.90
7016;DHT22;3548;48.402;9.990;2022-09-21T05:33:31;4.50;99.90
7016;DHT22;3548;48.402;9.990;2022-09-21T05:38:46;4.70;99.90
7016;DHT22;3548;48.402;9.990;2022-09-21T05:41:12;4.70;99.90
7016;DHT22;3548;48.402;9.990;2022-09-21T05:43:38;4.80;99.90
7016;DHT22;3548;48.402;9.990;2022-09-21T05:46:13;4.80;99.90
7016;DHT22;3548;48.402;9.990;2022-09-21T05:48:44;4.90;99.90
7016;DHT22;3548;48.402;9.990;2022-09-21T05:51:33;4.90;99.90
7016;DHT22;3548;48.402;9.990;2022-09-21T05:56:57;5.10;99.90
7016;DHT22;3548;48.402;9.990;2022-09-21T06:02:34;5.20;99.90
7016;DHT22;3548;48.402;9.990;2022-09-21T06:05:10;5.30;99.90
7016;DHT22;3548;48.402;9.990;2022-09-21T06:07:36;5.40;99.90
7016;DHT22;3548;48.402;9.990;2022-09-21T06:10:01;5.50;99.90
7016;DHT22;3548;48.402;9.990;2022-09-21T06:12:27;5.50;99.90
7016;DHT22;3548;48.402;9.990;2022-09-21T06:14:52;5.60;99.90
7016;DHT22;3548;48.402;9.990;2022-09-21T06:17:21;5.70;99.90
7016;DHT22;3548;48.402;9.990;2022-09-21T06:19:46;5.70;99.90
7016;DHT22;3548;48.402;9.990;2022-09-21T06:22:12;5.80;99.90
7016;DHT22;3548;48.402;9.990;2022-09-21T06:24:37;5.80;99.90
7016;DHT22;3548;48.402;9.990;2022-09-21T06:27:03;5.90;99.90
7016;DHT22;3548;48.402;9.990;2022-09-21T06:29:29;6.00;99.90
7016;DHT22;3548;48.402;9.990;2022-09-21T06:31:54;6.20;99.90
7016;DHT22;3548;48.402;9.990;2022-09-21T06:34:20;6.30;99.90
7016;DHT22;3548;48.402;9.990;2022-09-21T06:36:45;6.40;99.90
7016;DHT22;3548;48.402;9.990;2022-09-21T06:39:11;6.50;99.90
7016;DHT22;3548;48.402;9.990;2022-09-21T06:41:36;6.70;99.90
7016;DHT22;3548;48.402;9.990;2022-09-21T06:44:02;6.80;99.90
7016;DHT22;3548;48.402;9.990;2022-09-21T06:46:28;6.90;99.90
7016;DHT22;3548;48.402;9.990;2022-09-21T06:48:54;7.10;99.90
7016;DHT22;3548;48.402;9.990;2022-09-21T06:51:19;7.20;99.90
7016;DHT22;3548;48.402;9.990;2022-09-21T06:53:46;7.30;99.90
7016;DHT22;3548;48.402;9.990;2022-09-21T06:56:12;7.60;99.90
7016;DHT22;3548;48.402;9.990;2022-09-21T06:58:38;7.70;99.90
7016;DHT22;3548;48.402;9.990;2022-09-21T07:01:09;7.80;99.90
7016;DHT22;3548;48.402;9.990;2022-09-21T07:03:35;8.00;99.90
7016;DHT22;3548;48.402;9.990;2022-09-21T07:06:01;8.10;99.90
7016;DHT22;3548;48.402;9.990;2022-09-21T07:08:26;8.20;99.90
7016;DHT22;3548;48.402;9.990;2022-09-21T07:10:52;8.30;99.90
7016;DHT22;3548;48.402;9.990;2022-09-21T07:13:18;8.40;99.90
7016;DHT22;3548;48.402;9.990;2022-09-21T07:15:44;8.50;99.90
7016;DHT22;3548;48.402;9.990;2022-09-21T07:18:13;8.50;99.90
7016;DHT22;3548;48.402;9.990;2022-09-21T07:20:39;8.60;99.90
7016;DHT22;3548;48.402;9.990;2022-09-21T07:23:23;8.70;99.90
7016;DHT22;3548;48.402;9.990;2022-09-21T07:25:49;8.80;99.90
7016;DHT22;3548;48.402;9.990;2022-09-21T07:28:17;8.90;99.90
7016;DHT22;3548;48.402;9.990;2022-09-21T07:30:43;9.00;99.90
7016;DHT22;3548;48.402;9.990;2022-09-21T07:33:09;9.00;99.90
7016;DHT22;3548;48.402;9.990;2022-09-21T07:35:34;9.10;99.90
7016;DHT22;3548;48.402;9.990;2022-09-21T07:38:02;9.00;99.90
7016;DHT22;3548;48.402;9.990;2022-09-21T07:40:28;9.10;99.90
7016;DHT22;3548;48.402;9.990;2022-09-21T07:42:58;9.20;99.90
7016;DHT22;3548;48.402;9.990;2022-09-21T07:45:25;9.30;99.90
7016;DHT22;3548;48.402;9.990;2022-09-21T07:47:50;9.30;99.90
7016;DHT22;3548;48.402;9.990;2022-09-21T07:50:19;9.40;99.90
7016;DHT22;3548;48.402;9.990;2022-09-21T07:52:45;9.60;99.90
7016;DHT22;3548;48.402;9.990;2022-09-21T07:55:12;9.60;99.90
7016;DHT22;3548;48.402;9.990;2022-09-21T07:57:38;9.80;99.90
7016;DHT22;3548;48.402;9.990;2022-09-21T08:00:22;9.80;99.90
7016;DHT22;3548;48.402;9.990;2022-09-21T08:02:48;9.90;99.90
7016;DHT22;3548;48.402;9.990;2022-09-21T08:05:14;10.00;99.90
7016;DHT22;3548;48.402;9.990;2022-09-21T08:07:39;10.00;99.90
7016;DHT22;3548;48.402;9.990;2022-09-21T08:10:05;10.10;99.90
7016;DHT22;3548;48.402;9.990;2022-09-21T08:12:31;10.20;99.90
7016;DHT22;3548;48.402;9.990;2022-09-21T08:14:57;10.40;99.90
7016;DHT22;3548;48.402;9.990;2022-09-21T08:17:23;10.50;99.90
7016;DHT22;3548;48.402;9.990;2022-09-21T08:19:49;10.60;99.90
7016;DHT22;3548;48.402;9.990;2022-09-21T08:22:14;10.70;99.90
7016;DHT22;3548;48.402;9.990;2022-09-21T08:24:40;10.80;99.90
7016;DHT22;3548;48.402;9.990;2022-09-21T08:27:09;10.90;99.90
7016;DHT22;3548;48.402;9.990;2022-09-21T08:29:34;10.90;99.90
7016;DHT22;3548;48.402;9.990;2022-09-21T08:32:01;11.00;99.90
7016;DHT22;3548;48.402;9.990;2022-09-21T08:34:27;11.00;99.90
7016;DHT22;3548;48.402;9.990;2022-09-21T08:36:52;11.00;99.90
7016;DHT22;3548;48.402;9.990;2022-09-21T08:39:18;11.00;99.90
7016;DHT22;3548;48.402;9.990;2022-09-21T08:44:51;11.20;99.90
7016;DHT22;3548;48.402;9.990;2022-09-21T08:47:35;11.30;99.90
7016;DHT22;3548;48.402;9.990;2022-09-21T08:50:04;11.30;99.90
7016;DHT22;3548;48.402;9.990;2022-09-21T08:52:36;11.40;99.90
7016;DHT22;3548;48.402;9.990;2022-09-21T08:55:09;11.50;99.90
7016;DHT22;3548;48.402;9.990;2022-09-21T08:57:38;11.50;99.90
7016;DHT22;3548;48.402;9.990;2022-09-21T09:00:07;11.70;99.90
7016;DHT22;3548;48.402;9.990;2022-09-21T09:03:03;11.80;99.90
7016;DHT22;3548;48.402;9.990;2022-09-21T09:05:49;11.90;99.90
7016;DHT22;3548;48.402;9.990;2022-09-21T09:10:55;12.00;99.90
7016;DHT22;3548;48.402;9.990;2022-09-21T09:18:48;12.30;99.90
7016;DHT22;3548;48.402;9.990;2022-09-21T09:21:31;12.30;99.90
7016;DHT22;3548;48.402;9.990;2022-09-21T09:25:02;12.40;99.90
7016;DHT22;3548;48.402;9.990;2022-09-21T09:27:08;12.60;99.90
7016;DHT22;3548;48.402;9.990;2022-09-21T09:30:02;12.70;99.90
7016;DHT22;3548;48.402;9.990;2022-09-21T09:35:35;12.60;99.90
7016;DHT22;3548;48.402;9.990;2022-09-21T09:41:12;12.90;99.90
7016;DHT22;3548;48.402;9.990;2022-09-21T09:43:53;12.70;99.90
7016;DHT22;3548;48.402;9.990;2022-09-21T09:46:34;12.90;99.90
7016;DHT22;3548;48.402;9.990;2022-09-21T09:49:23;12.90;99.90
7016;DHT22;3548;48.402;9.990;2022-09-21T09:51:53;12.80;99.90
7016;DHT22;3548;48.402;9.990;2022-09-21T09:54:23;12.80;99.90
7016;DHT22;3548;48.402;9.990;2022-09-21T09:56:50;12.80;99.90
7016;DHT22;3548;48.402;9.990;2022-09-21T10:02:00;12.80;99.90
7016;DHT22;3548;48.402;9.990;2022-09-21T10:04:26;13.00;99.90
7016;DHT22;3548;48.402;9.990;2022-09-21T10:06:52;13.10;99.90
7016;DHT22;3548;48.402;9.990;2022-09-21T10:11:51;12.90;99.90
7016;DHT22;3548;48.402;9.990;2022-09-21T10:14:23;12.60;99.90
7016;DHT22;3548;48.402;9.990;2022-09-21T10:16:50;12.90;99.90
7016;DHT22;3548;48.402;9.990;2022-09-21T10:19:20;13.10;99.90
7016;DHT22;3548;48.402;9.990;2022-09-21T10:21:46;13.20;99.90
7016;DHT22;3548;48.402;9.990;2022-09-21T10:24:24;13.40;99.90
7016;DHT22;3548;48.402;9.990;2022-09-21T10:27:11;13.60;99.90
7016;DHT22;3548;48.402;9.990;2022-09-21T10:29:46;13.60;99.90
7016;DHT22;3548;48.402;9.990;2022-09-21T10:34:39;13.80;99.90
7016;DHT22;3548;48.402;9.990;2022-09-21T10:37:29;14.00;99.90
7016;DHT22;3548;48.402;9.990;2022-09-21T10:39:55;14.20;99.90
7016;DHT22;3548;48.402;9.990;2022-09-21T10:42:21;14.30;99.90
7016;DHT22;3548;48.402;9.990;2022-09-21T10:45:14;14.50;99.90
7016;DHT22;3548;48.402;9.990;2022-09-21T10:50:43;14.70;99.90
7016;DHT22;3548;48.402;9.990;2022-09-21T10:55:43;14.20;99.90
7016;DHT22;3548;48.402;9.990;2022-09-21T10:58:12;14.30;99.90
7016;DHT22;3548;48.402;9.990;2022-09-21T11:00:42;14.40;99.90
7016;DHT22;3548;48.402;9.990;2022-09-21T11:03:39;14.30;99.90
7016;DHT22;3548;48.402;9.990;2022-09-21T11:06:20;14.00;99.90
7016;DHT22;3548;48.402;9.990;2022-09-21T11:09:12;13.70;99.90
7016;DHT22;3548;48.402;9.990;2022-09-21T11:17:46;14.00;99.90
7016;DHT22;3548;48.402;9.990;2022-09-21T11:23:19;14.40;99.90
7016;DHT22;3548;48.402;9.990;2022-09-21T11:29:14;14.10;99.90
7016;DHT22;3548;48.402;9.990;2022-09-21T11:34:28;14.00;99.90
7016;DHT22;3548;48.402;9.990;2022-09-21T11:44:59;14.80;99.90
7016;DHT22;3548;48.402;9.990;2022-09-21T11:48:15;14.90;99.60
7016;DHT22;3548;48.402;9.990;2022-09-21T11:50:46;15.00;99.90
7016;DHT22;3548;48.402;9.990;2022-09-21T11:58:57;14.70;99.70
7016;DHT22;3548;48.402;9.990;2022-09-21T12:10:47;15.20;99.50
7016;DHT22;3548;48.402;9.990;2022-09-21T12:13:35;15.20;98.80
7016;DHT22;3548;48.402;9.990;2022-09-21T12:16:15;15.00;98.80
7016;DHT22;3548;48.402;9.990;2022-09-21T12:18:47;14.60;99.30
7016;DHT22;3548;48.402;9.990;2022-09-21T12:21:25;14.30;99.90
7016;DHT22;3548;48.402;9.990;2022-09-21T12:23:55;14.10;99.60
7016;DHT22;3548;48.402;9.990;2022-09-21T12:26:37;14.10;99.90
7016;DHT22;3548;48.402;9.990;2022-09-21T12:29:52;14.30;99.90
7016;DHT22;3548;48.402;9.990;2022-09-21T12:32:17;14.40;99.90
7016;DHT22;3548;48.402;9.990;2022-09-21T12:34:53;14.50;99.70
7016;DHT22;3548;48.402;9.990;2022-09-21T12:37:39;14.40;99.40
7016;DHT22;3548;48.402;9.990;2022-09-21T12:40:17;14.60;99.70
7016;DHT22;3548;48.402;9.990;2022-09-21T12:42:49;14.90;98.90
7016;DHT22;3548;48.402;9.990;2022-09-21T12:45:29;15.20;98.40
7016;DHT22;3548;48.402;9.990;2022-09-21T12:48:05;15.40;97.40
7016;DHT22;3548;48.402;9.990;2022-09-21T12:50:42;15.50;96.90
7016;DHT22;3548;48.402;9.990;2022-09-21T12:53:21;15.30;97.40
7016;DHT22;3548;48.402;9.990;2022-09-21T12:58:41;14.70;98.10
7016;DHT22;3548;48.402;9.990;2022-09-21T13:01:35;14.60;98.40
7016;DHT22;3548;48.402;9.990;2022-09-21T13:04:17;14.80;97.40
7016;DHT22;3548;48.402;9.990;2022-09-21T13:09:34;14.70;97.10
7016;DHT22;3548;48.402;9.990;2022-09-21T13:12:09;14.60;97.40
7016;DHT22;3548;48.402;9.990;2022-09-21T13:14:44;14.90;97.10
7016;DHT22;3548;48.402;9.990;2022-09-21T13:17:23;14.90;96.80
7016;DHT22;3548;48.402;9.990;2022-09-21T13:20:14;14.80;97.00
7016;DHT22;3548;48.402;9.990;2022-09-21T13:22:41;14.70;96.90
7016;DHT22;3548;48.402;9.990;2022-09-21T13:25:19;14.70;96.60
7016;DHT22;3548;48.402;9.990;2022-09-21T13:30:43;14.60;96.20
7016;DHT22;3548;48.402;9.990;2022-09-21T13:33:30;14.80;95.90
7016;DHT22;3548;48.402;9.990;2022-09-21T13:36:27;15.00;95.70
7016;DHT22;3548;48.402;9.990;2022-09-21T13:51:34;15.70;93.60
7016;DHT22;3548;48.402;9.990;2022-09-21T13:54:13;15.70;93.50
7016;DHT22;3548;48.402;9.990;2022-09-21T13:56:39;15.50;93.30
7016;DHT22;3548;48.402;9.990;2022-09-21T13:59:19;15.50;93.40
7016;DHT22;3548;48.402;9.990;2022-09-21T14:01:47;15.40;93.10
7016;DHT22;3548;48.402;9.990;2022-09-21T14:04:24;15.40;93.30
7016;DHT22;3548;48.402;9.990;2022-09-21T14:06:51;15.50;93.50
7016;DHT22;3548;48.402;9.990;2022-09-21T14:10:08;15.60;92.80
7016;DHT22;3548;48.402;9.990;2022-09-21T14:12:18;15.60;92.70
7016;DHT22;3548;48.402;9.990;2022-09-21T14:17:44;15.30;92.80
7016;DHT22;3548;48.402;9.990;2022-09-21T14:20:31;15.30;93.10
7016;DHT22;3548;48.402;9.990;2022-09-21T14:28:20;15.40;92.80
7016;DHT22;3548;48.402;9.990;2022-09-21T14:30:52;15.60;92.70
7016;DHT22;3548;48.402;9.990;2022-09-21T14:33:21;15.60;92.60
7016;DHT22;3548;48.402;9.990;2022-09-21T14:35:50;15.60;92.40
7016;DHT22;3548;48.402;9.990;2022-09-21T14:38:26;15.60;92.90
7016;DHT22;3548;48.402;9.990;2022-09-21T14:40:57;15.40;93.00
7016;DHT22;3548;48.402;9.990;2022-09-21T14:43:28;15.30;92.10
7016;DHT22;3548;48.402;9.990;2022-09-21T14:49:21;15.10;92.60
7016;DHT22;3548;48.402;9.990;2022-09-21T14:55:11;15.00;93.10
7016;DHT22;3548;48.402;9.990;2022-09-21T15:00:45;14.90;93.00
7016;DHT22;3548;48.402;9.990;2022-09-21T15:05:45;14.80;92.90
7016;DHT22;3548;48.402;9.990;2022-09-21T15:11:30;14.70;93.00
7016;DHT22;3548;48.402;9.990;2022-09-21T15:16:44;15.00;92.50
7016;DHT22;3548;48.402;9.990;2022-09-21T15:21:45;15.10;91.90
7016;DHT22;3548;48.402;9.990;2022-09-21T15:24:27;15.00;92.20
7016;DHT22;3548;48.402;9.990;2022-09-21T15:27:01;15.00;92.50
7016;DHT22;3548;48.402;9.990;2022-09-21T15:29:30;14.80;92.20
7016;DHT22;3548;48.402;9.990;2022-09-21T15:31:57;14.70;92.30
7016;DHT22;3548;48.402;9.990;2022-09-21T15:34:24;14.60;92.30
7016;DHT22;3548;48.402;9.990;2022-09-21T15:36:49;14.50;92.30
7016;DHT22;3548;48.402;9.990;2022-09-21T15:39:22;14.50;92.60
7016;DHT22;3548;48.402;9.990;2022-09-21T15:41:49;14.60;92.90
7016;DHT22;3548;48.402;9.990;2022-09-21T15:44:22;14.60;92.00
7016;DHT22;3548;48.402;9.990;2022-09-21T15:46:51;14.60;91.80
7016;DHT22;3548;48.402;9.990;2022-09-21T15:49:19;14.60;92.10
7016;DHT22;3548;48.402;9.990;2022-09-21T15:51:49;14.60;92.20
7016;DHT22;3548;48.402;9.990;2022-09-21T15:54:36;14.50;92.10
7016;DHT22;3548;48.402;9.990;2022-09-21T15:57:21;14.40;92.60
7016;DHT22;3548;48.402;9.990;2022-09-21T15:59:50;14.40;92.30
7016;DHT22;3548;48.402;9.990;2022-09-21T16:02:20;14.40;92.60
7016;DHT22;3548;48.402;9.990;2022-09-21T16:04:47;14.40;92.70
7016;DHT22;3548;48.402;9.990;2022-09-21T16:07:42;14.40;92.90
7016;DHT22;3548;48.402;9.990;2022-09-21T16:13:09;14.50;92.90
7016;DHT22;3548;48.402;9.990;2022-09-21T16:16:09;14.50;92.80
7016;DHT22;3548;48.402;9.990;2022-09-21T16:18:45;14.40;92.60
7016;DHT22;3548;48.402;9.990;2022-09-21T16:21:21;14.30;92.80
7016;DHT22;3548;48.402;9.990;2022-09-21T16:23:49;14.20;93.00
7016;DHT22;3548;48.402;9.990;2022-09-21T16:26:29;14.20;92.70
7016;DHT22;3548;48.402;9.990;2022-09-21T16:29:17;14.10;92.60
7016;DHT22;3548;48.402;9.990;2022-09-21T16:31:44;14.00;93.20
7016;DHT22;3548;48.402;9.990;2022-09-21T16:34:28;13.90;93.10
7016;DHT22;3548;48.402;9.990;2022-09-21T16:36:57;13.80;93.20
7016;DHT22;3548;48.402;9.990;2022-09-21T16:39:23;13.80;93.50
7016;DHT22;3548;48.402;9.990;2022-09-21T16:41:55;13.70;93.50
7016;DHT22;3548;48.402;9.990;2022-09-21T16:44:24;13.60;93.70
7016;DHT22;3548;48.402;9.990;2022-09-21T16:46:55;13.60;94.00
7016;DHT22;3548;48.402;9.990;2022-09-21T16:49:23;13.50;94.20
7016;DHT22;3548;48.402;9.990;2022-09-21T16:51:50;13.40;94.30
7016;DHT22;3548;48.402;9.990;2022-09-21T16:54:17;13.40;94.70
7016;DHT22;3548;48.402;9.990;2022-09-21T16:56:44;13.30;94.70
7016;DHT22;3548;48.402;9.990;2022-09-21T16:59:16;13.20;94.70
7016;DHT22;3548;48.402;9.990;2022-09-21T17:01:46;13.20;94.90
7016;DHT22;3548;48.402;9.990;2022-09-21T17:04:16;13.10;95.00
7016;DHT22;3548;48.402;9.990;2022-09-21T17:06:41;13.00;95.10
7016;DHT22;3548;48.402;9.990;2022-09-21T17:09:52;12.90;95.30
7016;DHT22;3548;48.402;9.990;2022-09-21T17:12:16;12.80;95.60
7016;DHT22;3548;48.402;9.990;2022-09-21T17:14:42;12.70;95.20
7016;DHT22;3548;48.402;9.990;2022-09-21T17:17:17;12.60;95.60
7016;DHT22;3548;48.402;9.990;2022-09-21T17:19:44;12.40;95.80
7016;DHT22;3548;48.402;9.990;2022-09-21T17:22:11;12.30;95.90
7016;DHT22;3548;48.402;9.990;2022-09-21T17:24:42;12.20;96.10
7016;DHT22;3548;48.402;9.990;2022-09-21T17:27:10;12.10;96.30
7016;DHT22;3548;48.402;9.990;2022-09-21T17:29:36;12.00;96.50
7016;DHT22;3548;48.402;9.990;2022-09-21T17:32:05;12.00;96.50
7016;DHT22;3548;48.402;9.990;2022-09-21T17:34:34;11.90;96.70
7016;DHT22;3548;48.402;9.990;2022-09-21T17:37:00;11.80;96.90
7016;DHT22;3548;48.402;9.990;2022-09-21T17:39:26;11.70;97.00
7016;DHT22;3548;48.402;9.990;2022-09-21T17:42:12;11.70;97.20
7016;DHT22;3548;48.402;9.990;2022-09-21T17:45:08;11.60;97.30
7016;DHT22;3548;48.402;9.990;2022-09-21T17:47:40;11.50;97.40
7016;DHT22;3548;48.402;9.990;2022-09-21T17:52:39;11.40;97.60
7016;DHT22;3548;48.402;9.990;2022-09-21T17:55:24;11.40;97.70
7016;DHT22;3548;48.402;9.990;2022-09-21T18:03:35;11.20;98.00
7016;DHT22;3548;48.402;9.990;2022-09-21T18:06:06;11.20;98.00
7016;DHT22;3548;48.402;9.990;2022-09-21T18:08:34;11.20;98.20
7016;DHT22;3548;48.402;9.990;2022-09-21T18:20:05;11.00;98.40
7016;DHT22;3548;48.402;9.990;2022-09-21T18:25:36;10.90;98.50
7016;DHT22;3548;48.402;9.990;2022-09-21T18:28:18;10.90;98.50
7016;DHT22;3548;48.402;9.990;2022-09-21T18:30:51;10.80;98.50
7016;DHT22;3548;48.402;9.990;2022-09-21T18:33:27;10.80;98.50
7016;DHT22;3548;48.402;9.990;2022-09-21T18:35:59;10.80;98.60
7016;DHT22;3548;48.402;9.990;2022-09-21T18:38:49;10.70;98.70
7016;DHT22;3548;48.402;9.990;2022-09-21T18:41:47;10.70;98.70
7016;DHT22;3548;48.402;9.990;2022-09-21T18:44:30;10.70;98.80
7016;DHT22;3548;48.402;9.990;2022-09-21T18:47:16;10.60;99.00
7016;DHT22;3548;48.402;9.990;2022-09-21T18:49:57;10.60;99.20
7016;DHT22;3548;48.402;9.990;2022-09-21T18:52:45;10.50;99.30
7016;DHT22;3548;48.402;9.990;2022-09-21T18:55:24;10.50;99.60
7016;DHT22;3548;48.402;9.990;2022-09-21T18:57:55;10.50;99.80
7016;DHT22;3548;48.402;9.990;2022-09-21T19:00:22;10.40;99.90
7016;DHT22;3548;48.402;9.990;2022-09-21T19:02:51;10.40;99.90
7016;DHT22;3548;48.402;9.990;2022-09-21T19:05:17;10.30;99.90
7016;DHT22;3548;48.402;9.990;2022-09-21T19:08:13;10.30;99.90
7016;DHT22;3548;48.402;9.990;2022-09-21T19:10:50;10.30;99.90
7016;DHT22;3548;48.402;9.990;2022-09-21T19:13:38;10.20;99.90
7016;DHT22;3548;48.402;9.990;2022-09-21T19:16:16;10.20;99.90
7016;DHT22;3548;48.402;9.990;2022-09-21T19:19:05;10.20;99.90
7016;DHT22;3548;48.402;9.990;2022-09-21T19:21:54;10.10;99.90
7016;DHT22;3548;48.402;9.990;2022-09-21T19:30:14;10.00;99.90
7016;DHT22;3548;48.402;9.990;2022-09-21T19:32:45;10.00;99.90
7016;DHT22;3548;48.402;9.990;2022-09-21T19:37:47;10.00;99.90
7016;DHT22;3548;48.402;9.990;2022-09-21T19:40:14;9.90;99.90
7016;DHT22;3548;48.402;9.990;2022-09-21T19:48:34;9.90;99.90
7016;DHT22;3548;48.402;9.990;2022-09-21T19:51:02;9.80;99.90